createdAt,value
2017-09-06T00:00:11.317Z,0.50
2017-09-06T00:02:38.808Z,0.50
2017-09-06T00:05:06.324Z,0.67
2017-09-06T00:07:33.823Z,0.50
2017-09-06T00:10:01.347Z,0.50
2017-09-06T00:12:28.864Z,0.40
2017-09-06T00:14:56.351Z,0.50
2017-09-06T00:17:24.728Z,0.40
2017-09-06T00:19:52.256Z,0.40
2017-09-06T00:22:19.750Z,0.40
2017-09-06T00:24:47.272Z,0.50
2017-09-06T00:27:14.782Z,0.47
2017-09-06T00:29:42.310Z,0.50
2017-09-06T00:32:09.832Z,0.50
2017-09-06T00:34:37.331Z,0.40
2017-09-06T00:37:04.848Z,0.50
2017-09-06T00:39:32.337Z,0.50
2017-09-06T00:41:59.881Z,0.50
2017-09-06T00:44:27.378Z,0.47
2017-09-06T00:46:54.875Z,0.50
2017-09-06T00:49:22.416Z,0.40
2017-09-06T00:51:49.909Z,0.57
2017-09-06T00:54:17.392Z,0.40
2017-09-06T00:56:44.932Z,0.50
2017-09-06T00:59:12.428Z,0.40
2017-09-06T01:01:39.936Z,0.40
2017-09-06T01:04:07.468Z,0.47
2017-09-06T01:06:34.955Z,0.50
2017-09-06T01:09:02.447Z,0.50
2017-09-06T01:11:29.984Z,0.50
2017-09-06T01:13:57.464Z,0.50
2017-09-06T01:16:24.996Z,0.40
2017-09-06T01:18:52.556Z,0.50
2017-09-06T01:21:20.052Z,0.40
2017-09-06T01:23:47.540Z,0.40
2017-09-06T01:26:15.845Z,0.60
2017-09-06T01:28:43.328Z,0.40
2017-09-06T01:31:10.820Z,0.47
2017-09-06T01:33:38.359Z,0.40
2017-09-06T01:36:05.904Z,0.50
2017-09-06T01:38:33.392Z,0.60
2017-09-06T01:41:00.918Z,0.50
2017-09-06T01:43:28.416Z,0.80
2017-09-06T01:45:55.931Z,0.57
2017-09-06T01:48:23.419Z,0.40
2017-09-06T01:50:50.936Z,0.70
2017-09-06T01:53:18.428Z,0.53
2017-09-06T01:55:45.960Z,0.50
2017-09-06T01:58:13.446Z,0.50
2017-09-06T02:00:40.967Z,0.40
2017-09-06T02:03:08.448Z,0.40
2017-09-06T02:05:35.971Z,0.43
2017-09-06T02:08:03.461Z,0.40
2017-09-06T02:10:30.954Z,0.60
2017-09-06T02:12:58.480Z,0.40
2017-09-06T02:15:26.020Z,0.50
2017-09-06T02:17:53.508Z,0.50
2017-09-06T02:20:33.140Z,0.47
2017-09-06T02:23:00.670Z,0.40
2017-09-06T02:25:28.159Z,0.50
2017-09-06T02:27:55.688Z,0.40
2017-09-06T02:30:23.182Z,0.40
2017-09-06T02:32:50.672Z,0.40
2017-09-06T02:35:18.193Z,0.50
2017-09-06T02:37:45.731Z,0.50
2017-09-06T02:40:13.220Z,0.40
2017-09-06T02:42:40.709Z,0.50
2017-09-06T02:45:08.234Z,0.50
2017-09-06T02:47:35.755Z,0.50
2017-09-06T02:50:03.487Z,0.50
2017-09-06T02:52:31.023Z,0.60
2017-09-06T02:54:58.512Z,0.40
2017-09-06T02:57:26.000Z,0.50
2017-09-06T02:59:53.557Z,0.50
2017-09-06T03:02:21.048Z,0.50
2017-09-06T03:04:48.536Z,0.40
2017-09-06T03:07:16.060Z,0.60
2017-09-06T03:09:43.580Z,0.50
2017-09-06T03:12:11.079Z,0.40
2017-09-06T03:14:38.597Z,0.40
2017-09-06T03:17:06.094Z,0.50
2017-09-06T03:19:33.626Z,0.50
2017-09-06T03:22:01.116Z,0.40
2017-09-06T03:24:28.603Z,0.50
2017-09-06T03:26:56.118Z,0.60
2017-09-06T03:29:23.643Z,0.50
2017-09-06T03:31:51.180Z,0.50
2017-09-06T03:34:18.669Z,0.60
2017-09-06T03:36:46.164Z,0.50
2017-09-06T03:39:13.692Z,0.50
2017-09-06T03:41:41.188Z,0.60
2017-09-06T03:44:09.036Z,0.50
2017-09-06T03:46:36.543Z,0.43
2017-09-06T03:49:04.424Z,0.50
2017-09-06T03:51:31.919Z,0.50
2017-09-06T03:53:59.592Z,0.50
2017-09-06T03:56:27.815Z,0.50
2017-09-06T03:58:55.532Z,0.70
2017-09-06T04:01:23.041Z,0.50
2017-09-06T04:03:50.533Z,0.50
2017-09-06T04:06:18.036Z,0.50
2017-09-06T04:08:45.528Z,0.60
2017-09-06T04:11:13.017Z,0.50
2017-09-06T04:13:40.519Z,0.60
2017-09-06T04:16:08.004Z,0.60
2017-09-06T04:18:35.515Z,0.60
2017-09-06T04:21:03.003Z,0.60
2017-09-06T04:23:30.492Z,0.60
2017-09-06T04:25:58.007Z,0.70
2017-09-06T04:28:25.495Z,0.60
2017-09-06T04:30:53.101Z,0.60
2017-09-06T04:33:20.592Z,0.50
2017-09-06T04:35:48.843Z,0.40
2017-09-06T04:38:16.347Z,0.60
2017-09-06T04:40:43.839Z,0.57
2017-09-06T04:43:11.335Z,0.60
2017-09-06T04:45:38.824Z,0.40
2017-09-06T04:48:06.321Z,0.50
2017-09-06T04:50:33.823Z,0.70
2017-09-06T04:53:01.307Z,0.70
2017-09-06T04:55:28.796Z,0.60
2017-09-06T04:57:56.311Z,0.50
2017-09-06T05:00:23.795Z,0.80
2017-09-06T05:02:51.315Z,0.50
2017-09-06T05:05:18.808Z,0.60
2017-09-06T05:07:46.360Z,0.67
2017-09-06T05:10:13.854Z,0.70
2017-09-06T05:12:41.348Z,0.60
2017-09-06T05:15:08.865Z,0.70
2017-09-06T05:17:36.364Z,0.50
2017-09-06T05:20:03.855Z,0.60
2017-09-06T05:22:31.464Z,0.80
2017-09-06T05:24:58.955Z,0.50
2017-09-06T05:27:26.450Z,0.70
2017-09-06T05:29:53.956Z,0.60
2017-09-06T05:32:21.452Z,0.60
2017-09-06T05:34:48.940Z,0.60
2017-09-06T05:37:16.448Z,0.60
2017-09-06T05:39:43.939Z,0.60
2017-09-06T05:42:11.456Z,0.57
2017-09-06T05:44:38.943Z,0.67
2017-09-06T05:47:06.446Z,0.57
2017-09-06T05:49:33.928Z,0.60
2017-09-06T05:52:01.428Z,0.60
2017-09-06T05:54:28.931Z,0.40
2017-09-06T05:56:56.430Z,0.63
2017-09-06T05:59:23.953Z,0.80
2017-09-06T06:01:51.448Z,0.77
2017-09-06T06:04:18.937Z,0.50
2017-09-06T06:06:46.444Z,0.70
2017-09-06T06:09:13.933Z,0.50
2017-09-06T06:11:41.446Z,0.90
2017-09-06T06:14:08.931Z,0.70
2017-09-06T06:16:36.440Z,0.53
2017-09-06T06:19:03.936Z,0.60
2017-09-06T06:21:31.428Z,0.50
2017-09-06T06:23:58.937Z,0.60
2017-09-06T06:26:29.270Z,0.50
2017-09-06T06:28:56.757Z,0.60
2017-09-06T06:31:24.255Z,0.60
2017-09-06T06:33:51.748Z,0.57
2017-09-06T06:36:19.255Z,0.60
2017-09-06T06:38:46.750Z,0.60
2017-09-06T06:41:14.263Z,0.50
2017-09-06T06:43:41.752Z,0.60
2017-09-06T06:46:09.239Z,0.70
2017-09-06T06:48:36.740Z,0.40
2017-09-06T06:51:04.241Z,0.60
2017-09-06T06:53:32.652Z,0.50
2017-09-06T06:56:02.247Z,0.50
2017-09-06T06:58:29.740Z,0.40
2017-09-06T07:00:57.247Z,0.50
2017-09-06T07:03:24.731Z,0.77
2017-09-06T07:05:52.220Z,0.70
2017-09-06T07:08:19.732Z,0.50
2017-09-06T07:10:47.233Z,0.47
2017-09-06T07:13:14.715Z,0.50
2017-09-06T07:15:42.233Z,0.50
2017-09-06T07:18:09.720Z,0.50
2017-09-06T07:20:37.239Z,0.40
2017-09-06T07:23:04.726Z,0.50
2017-09-06T07:25:32.225Z,0.70
2017-09-06T07:27:59.728Z,0.60
2017-09-06T07:30:27.233Z,0.43
2017-09-06T07:32:54.740Z,0.50
2017-09-06T07:35:22.229Z,0.40
2017-09-06T07:37:49.726Z,0.53
2017-09-06T07:40:17.227Z,0.50
2017-09-06T07:42:44.720Z,0.43
2017-09-06T07:45:12.231Z,0.50
2017-09-06T07:47:39.720Z,0.40
2017-09-06T07:50:07.209Z,0.40
2017-09-06T07:52:34.723Z,0.40
2017-09-06T07:55:02.208Z,0.47
2017-09-06T07:57:29.704Z,0.50
2017-09-06T07:59:57.232Z,0.60
2017-09-06T08:02:24.727Z,0.50
2017-09-06T08:04:52.220Z,0.60
2017-09-06T08:07:19.727Z,0.50
2017-09-06T08:09:47.220Z,0.50
2017-09-06T08:12:14.733Z,0.50
2017-09-06T08:14:42.218Z,0.60
2017-09-06T08:17:09.706Z,0.40
2017-09-06T08:19:37.204Z,0.50
2017-09-06T08:22:04.697Z,0.40
2017-09-06T08:24:32.187Z,0.40
2017-09-06T08:26:59.701Z,0.50
2017-09-06T08:29:27.196Z,0.40
2017-09-06T08:31:54.700Z,0.50
2017-09-06T08:34:22.185Z,0.63
2017-09-06T08:36:49.692Z,0.50
2017-09-06T08:39:17.176Z,0.40
2017-09-06T08:41:44.687Z,0.40
2017-09-06T08:44:12.178Z,0.60
2017-09-06T08:46:39.668Z,0.40
2017-09-06T08:49:07.167Z,0.50
2017-09-06T08:51:34.660Z,0.50
2017-09-06T08:54:02.165Z,0.40
2017-09-06T08:56:29.663Z,0.47
2017-09-06T08:58:57.153Z,0.63
2017-09-06T09:01:24.661Z,0.50
2017-09-06T09:03:52.148Z,0.50
2017-09-06T09:06:19.646Z,0.60
2017-09-06T09:08:47.139Z,0.60
2017-09-06T09:11:14.623Z,0.63
2017-09-06T09:13:42.111Z,0.40
2017-09-06T09:16:09.616Z,1.00
2017-09-06T09:18:37.104Z,0.60
2017-09-06T09:21:04.608Z,0.80
2017-09-06T09:23:32.117Z,0.57
2017-09-06T09:25:59.732Z,0.60
2017-09-06T09:28:27.236Z,0.60
2017-09-06T09:30:54.723Z,0.50
2017-09-06T09:33:22.242Z,0.50
2017-09-06T09:35:49.733Z,0.50
2017-09-06T09:38:17.219Z,0.60
2017-09-06T09:40:44.743Z,0.60
2017-09-06T09:43:12.236Z,0.70
2017-09-06T09:45:39.748Z,0.70
2017-09-06T09:48:07.243Z,0.80
2017-09-06T09:50:34.731Z,1.07
2017-09-06T09:53:02.241Z,0.50
2017-09-06T09:55:29.728Z,0.53
2017-09-06T09:57:57.236Z,0.60
2017-09-06T10:00:24.729Z,0.60
2017-09-06T10:02:52.232Z,0.60
2017-09-06T10:05:19.718Z,0.40
2017-09-06T10:07:47.223Z,0.60
2017-09-06T10:10:14.712Z,0.50
2017-09-06T10:12:42.204Z,0.40
2017-09-06T10:15:09.703Z,0.50
2017-09-06T10:17:37.192Z,0.40
2017-09-06T10:20:04.697Z,0.40
2017-09-06T10:22:32.192Z,0.40
2017-09-06T10:24:59.685Z,0.50
2017-09-06T10:27:27.193Z,0.50
2017-09-06T10:29:54.696Z,0.40
2017-09-06T10:32:22.201Z,0.50
2017-09-06T10:34:49.689Z,0.40
2017-09-06T10:37:17.652Z,0.40
2017-09-06T10:39:45.158Z,0.50
2017-09-06T10:42:12.648Z,0.40
2017-09-06T10:44:40.135Z,0.47
2017-09-06T10:47:07.645Z,0.50
2017-09-06T10:49:35.136Z,0.50
2017-09-06T10:52:02.627Z,0.40
2017-09-06T10:54:30.132Z,0.47
2017-09-06T10:56:57.620Z,0.40
2017-09-06T10:59:25.121Z,0.40
2017-09-06T11:01:52.613Z,0.50
2017-09-06T11:04:20.107Z,0.70
2017-09-06T11:06:47.634Z,0.67
2017-09-06T11:09:15.125Z,0.53
2017-09-06T11:11:42.638Z,0.80
2017-09-06T11:14:10.136Z,0.70
2017-09-06T11:16:37.646Z,0.83
2017-09-06T11:19:05.153Z,0.70
2017-09-06T11:21:32.650Z,0.70
2017-09-06T11:24:00.156Z,0.73
2017-09-06T11:26:27.651Z,0.80
2017-09-06T11:28:55.148Z,0.70
2017-09-06T11:31:22.660Z,0.60
2017-09-06T11:33:50.156Z,0.60
2017-09-06T11:36:17.648Z,0.60
2017-09-06T11:38:45.163Z,0.50
2017-09-06T11:41:12.659Z,0.60
2017-09-06T11:43:40.196Z,0.90
2017-09-06T11:46:07.693Z,0.90
2017-09-06T11:48:35.188Z,0.73
2017-09-06T11:51:02.700Z,0.70
2017-09-06T11:53:30.961Z,0.43
2017-09-06T11:55:58.483Z,0.80
2017-09-06T11:58:25.986Z,0.50
2017-09-06T12:00:53.517Z,0.50
2017-09-06T12:03:21.013Z,0.57
2017-09-06T12:05:48.516Z,0.60
2017-09-06T12:08:16.038Z,0.50
2017-09-06T12:10:43.541Z,1.07
2017-09-06T12:13:11.117Z,0.77
2017-09-06T12:15:38.611Z,0.60
2017-09-06T12:18:06.116Z,0.83
2017-09-06T12:20:33.662Z,0.70
2017-09-06T12:23:01.162Z,0.50
2017-09-06T12:25:28.657Z,0.50
2017-09-06T12:27:56.179Z,0.70
2017-09-06T12:30:23.668Z,0.60
2017-09-06T12:32:51.208Z,0.80
2017-09-06T12:35:18.699Z,0.90
2017-09-06T12:37:46.190Z,0.97
2017-09-06T12:40:13.722Z,1.00
2017-09-06T12:42:41.226Z,0.60
2017-09-06T12:45:08.744Z,0.60
2017-09-06T12:47:36.245Z,0.60
2017-09-06T12:50:03.815Z,0.47
2017-09-06T12:52:31.316Z,0.40
2017-09-06T12:54:58.817Z,0.60
2017-09-06T12:57:26.342Z,0.40
2017-09-06T12:59:53.833Z,0.50
2017-09-06T13:02:21.400Z,0.50
2017-09-06T13:04:48.885Z,0.80
2017-09-06T13:07:16.373Z,0.73
2017-09-06T13:09:43.901Z,0.77
2017-09-06T13:12:11.395Z,0.77
2017-09-06T13:14:38.924Z,0.60
2017-09-06T13:17:06.417Z,0.50
2017-09-06T13:19:33.922Z,0.50
2017-09-06T13:22:01.445Z,0.40
2017-09-06T13:24:28.931Z,0.50
2017-09-06T13:26:56.451Z,0.50
2017-09-06T13:29:23.935Z,0.60
2017-09-06T13:31:51.468Z,0.50
2017-09-06T13:34:18.965Z,0.50
2017-09-06T13:36:46.497Z,0.50
2017-09-06T13:39:14.030Z,0.40
2017-09-06T13:41:41.519Z,0.50
2017-09-06T13:44:09.044Z,0.40
2017-09-06T13:46:36.533Z,0.40
2017-09-06T13:49:04.054Z,0.40
2017-09-06T13:51:31.591Z,0.40
2017-09-06T13:53:59.130Z,0.43
2017-09-06T13:56:26.625Z,0.50
2017-09-06T13:58:54.119Z,0.50
2017-09-06T14:01:21.642Z,0.60
2017-09-06T14:03:49.132Z,0.47
2017-09-06T14:06:16.671Z,0.60
2017-09-06T14:08:44.164Z,0.50
2017-09-06T14:11:11.657Z,0.63
2017-09-06T14:13:39.183Z,0.50
2017-09-06T14:16:06.881Z,0.40
2017-09-06T14:18:34.373Z,0.60
2017-09-06T14:21:01.862Z,0.60
2017-09-06T14:23:29.581Z,0.43
2017-09-06T14:25:57.076Z,0.70
2017-09-06T14:28:24.569Z,0.50
2017-09-06T14:30:52.176Z,0.47
2017-09-06T14:33:19.800Z,0.40
2017-09-06T14:35:47.303Z,0.40
2017-09-06T14:38:14.796Z,0.50
2017-09-06T14:40:42.323Z,0.50
2017-09-06T14:43:09.831Z,0.60
2017-09-06T14:45:37.331Z,0.50
2017-09-06T14:48:04.897Z,0.60
2017-09-06T14:50:32.391Z,0.60
2017-09-06T14:52:59.879Z,0.43
2017-09-06T14:55:27.408Z,0.40
2017-09-06T14:57:54.903Z,0.50
2017-09-06T15:00:22.396Z,0.50
2017-09-06T15:02:49.924Z,0.60
2017-09-06T15:05:17.412Z,0.60
2017-09-06T15:07:44.948Z,0.60
2017-09-06T15:10:12.464Z,0.93
2017-09-06T15:12:39.960Z,0.60
2017-09-06T15:15:07.478Z,0.60
2017-09-06T15:17:35.055Z,0.60
2017-09-06T15:20:02.583Z,1.13
2017-09-06T15:22:30.083Z,0.50
2017-09-06T15:24:57.581Z,0.60
2017-09-06T15:27:25.872Z,0.63
2017-09-06T15:29:53.363Z,0.70
2017-09-06T15:32:20.898Z,0.53
2017-09-06T15:34:48.392Z,0.70
2017-09-06T15:37:15.884Z,0.80
2017-09-06T15:39:43.409Z,0.60
2017-09-06T15:42:10.901Z,0.90
2017-09-06T15:44:38.431Z,1.07
2017-09-06T15:47:05.951Z,0.50
2017-09-06T15:49:33.445Z,0.60
2017-09-06T15:52:00.972Z,0.63
2017-09-06T15:54:28.488Z,0.50
2017-09-06T15:56:55.985Z,0.70
2017-09-06T15:59:23.523Z,0.70
2017-09-06T16:01:51.025Z,0.73
2017-09-06T16:04:18.514Z,0.60
2017-09-06T16:06:46.032Z,0.70
2017-09-06T16:09:13.559Z,0.67
2017-09-06T16:11:41.056Z,0.97
2017-09-06T16:14:08.624Z,0.60
2017-09-06T16:16:36.166Z,0.60
2017-09-06T16:19:03.658Z,0.60
2017-09-06T16:21:31.189Z,0.90
2017-09-06T16:23:58.681Z,0.80
2017-09-06T16:26:26.233Z,0.90
2017-09-06T16:28:53.725Z,0.90
2017-09-06T16:31:21.377Z,0.80
2017-09-06T16:33:48.873Z,1.00
2017-09-06T16:36:16.366Z,0.90
2017-09-06T16:38:43.890Z,0.90
2017-09-06T16:41:11.408Z,1.00
2017-09-06T16:43:38.959Z,0.70
2017-09-06T16:46:06.455Z,1.10
2017-09-06T16:48:33.948Z,0.60
2017-09-06T16:51:01.471Z,0.50
2017-09-06T16:53:29.011Z,0.60
2017-09-06T16:55:56.501Z,0.67
2017-09-06T16:58:23.987Z,1.03
2017-09-06T17:00:51.519Z,0.80
2017-09-06T17:03:19.006Z,0.70
2017-09-06T17:05:46.531Z,0.70
2017-09-06T17:08:14.040Z,0.83
2017-09-06T17:10:41.567Z,0.70
2017-09-06T17:13:09.092Z,0.97
2017-09-06T17:15:36.629Z,0.80
2017-09-06T17:18:04.132Z,0.83
2017-09-06T17:20:31.624Z,0.63
2017-09-06T17:22:59.177Z,0.90
2017-09-06T17:25:26.692Z,0.70
2017-09-06T17:27:54.211Z,1.10
2017-09-06T17:30:21.697Z,1.13
2017-09-06T17:32:49.260Z,1.10
2017-09-06T17:35:16.749Z,1.07
2017-09-06T17:37:44.252Z,1.00
2017-09-06T17:40:11.751Z,0.63
2017-09-06T17:42:39.236Z,1.10
2017-09-06T17:45:06.748Z,1.17
2017-09-06T17:47:34.240Z,1.10
2017-09-06T17:50:01.731Z,0.90
2017-09-06T17:52:29.243Z,1.20
2017-09-06T17:54:56.735Z,0.80
2017-09-06T17:57:24.223Z,1.03
2017-09-06T17:59:51.742Z,0.80
2017-09-06T18:02:19.230Z,1.10
2017-09-06T18:04:46.845Z,1.00
2017-09-06T18:07:14.336Z,1.03
2017-09-06T18:09:41.828Z,1.07
2017-09-06T18:12:09.330Z,0.77
2017-09-06T18:14:36.822Z,1.40
2017-09-06T18:17:04.352Z,1.00
2017-09-06T18:19:31.853Z,1.13
2017-09-06T18:21:59.343Z,1.07
2017-09-06T18:24:26.889Z,1.37
2017-09-06T18:26:54.367Z,1.10
2017-09-06T18:29:21.888Z,1.33
2017-09-06T18:31:49.485Z,1.07
2017-09-06T18:34:16.996Z,1.10
2017-09-06T18:36:44.484Z,0.90
2017-09-06T18:39:11.981Z,1.17
2017-09-06T18:41:39.614Z,0.93
2017-09-06T18:44:07.196Z,1.00
2017-09-06T18:46:34.687Z,0.90
2017-09-06T18:49:02.475Z,1.20
2017-09-06T18:51:30.042Z,0.97
2017-09-06T18:53:57.531Z,1.37
2017-09-06T18:56:25.044Z,1.00
2017-09-06T18:58:52.625Z,1.10
2017-09-06T19:01:20.190Z,1.20
2017-09-06T19:03:47.681Z,1.10
2017-09-06T19:06:15.196Z,1.20
2017-09-06T19:08:42.684Z,1.00
2017-09-06T19:11:10.186Z,1.30
2017-09-06T19:13:38.016Z,1.10
2017-09-06T19:16:05.511Z,1.07
2017-09-06T19:18:33.144Z,1.00
2017-09-06T19:21:00.644Z,1.30
2017-09-06T19:23:28.133Z,1.30
2017-09-06T19:25:55.740Z,1.23
2017-09-06T19:28:23.229Z,1.00
2017-09-06T19:30:50.716Z,1.00
2017-09-06T19:33:18.231Z,1.30
2017-09-06T19:35:45.731Z,1.10
2017-09-06T19:38:13.592Z,1.53
2017-09-06T19:40:41.081Z,1.10
2017-09-06T19:43:08.630Z,1.33
2017-09-06T19:45:36.154Z,1.40
2017-09-06T19:48:03.742Z,1.10
2017-09-06T19:50:31.401Z,0.87
2017-09-06T19:52:58.987Z,1.13
2017-09-06T19:55:26.551Z,1.20
2017-09-06T19:57:54.097Z,1.40
2017-09-06T20:00:21.627Z,1.63
2017-09-06T20:02:49.125Z,1.03
2017-09-06T20:05:16.677Z,1.27
2017-09-06T20:07:44.167Z,1.10
2017-09-06T20:10:11.774Z,1.37
2017-09-06T20:12:39.272Z,1.40
2017-09-06T20:15:06.758Z,1.40
2017-09-06T20:17:34.278Z,1.60
2017-09-06T20:20:01.764Z,1.73
2017-09-06T20:22:29.257Z,1.30
2017-09-06T20:24:56.776Z,1.40
2017-09-06T20:27:24.332Z,1.40
2017-09-06T20:29:51.866Z,1.27
2017-09-06T20:32:19.372Z,1.40
2017-09-06T20:34:46.910Z,1.27
2017-09-06T20:37:14.424Z,1.27
2017-09-06T20:39:41.911Z,1.30
2017-09-06T20:42:09.421Z,1.30
2017-09-06T20:44:36.939Z,1.17
2017-09-06T20:47:04.425Z,1.30
2017-09-06T20:49:31.920Z,1.40
2017-09-06T20:51:59.427Z,1.57
2017-09-06T20:54:26.927Z,1.37
2017-09-06T20:56:54.437Z,1.20
2017-09-06T20:59:21.944Z,1.47
2017-09-06T21:01:49.439Z,1.13
2017-09-06T21:04:16.959Z,1.20
2017-09-06T21:06:44.452Z,1.67
2017-09-06T21:09:11.957Z,1.27
2017-09-06T21:11:39.460Z,1.53
2017-09-06T21:14:06.952Z,1.33
2017-09-06T21:16:34.464Z,1.40
2017-09-06T21:19:01.969Z,1.40
2017-09-06T21:21:29.458Z,1.50
2017-09-06T21:23:56.964Z,1.60
2017-09-06T21:26:24.452Z,1.47
2017-09-06T21:28:51.943Z,1.60
2017-09-06T21:31:19.458Z,1.70
2017-09-06T21:33:46.975Z,1.43
2017-09-06T21:36:14.475Z,1.63
2017-09-06T21:38:41.984Z,1.73
2017-09-06T21:41:09.465Z,1.60
2017-09-06T21:43:36.963Z,1.30
2017-09-06T21:46:04.451Z,1.60
2017-09-06T21:48:31.963Z,1.50
2017-09-06T21:50:59.447Z,1.20
2017-09-06T21:53:26.948Z,1.00
2017-09-06T21:55:54.445Z,1.27
2017-09-06T21:58:21.939Z,1.30
2017-09-06T22:00:49.452Z,1.50
2017-09-06T22:03:16.948Z,1.30
2017-09-06T22:05:44.437Z,1.40
2017-09-06T22:08:11.948Z,1.53
2017-09-06T22:10:39.428Z,1.43
2017-09-06T22:13:06.931Z,1.27
2017-09-06T22:15:34.419Z,1.30
2017-09-06T22:18:01.916Z,1.20
2017-09-06T22:20:29.409Z,1.60
2017-09-06T22:22:57.016Z,1.80
2017-09-06T22:25:24.501Z,1.37
2017-09-06T22:27:51.993Z,1.23
2017-09-06T22:30:19.491Z,1.50
2017-09-06T22:32:46.976Z,1.13
2017-09-06T22:35:14.468Z,1.67
2017-09-06T22:37:41.980Z,1.43
2017-09-06T22:40:09.475Z,1.30
2017-09-06T22:42:36.986Z,1.40
2017-09-06T22:45:04.471Z,1.57
2017-09-06T22:47:31.976Z,1.20
2017-09-06T22:49:59.472Z,1.60
2017-09-06T22:52:26.996Z,1.80
2017-09-06T22:54:54.488Z,1.40
2017-09-06T22:57:21.972Z,1.33
2017-09-06T22:59:49.485Z,1.93
2017-09-06T23:02:16.971Z,1.40
2017-09-06T23:04:44.464Z,1.50
2017-09-06T23:07:11.979Z,1.50
2017-09-06T23:09:39.469Z,1.30
2017-09-06T23:12:06.981Z,1.30
2017-09-06T23:14:34.464Z,1.17
2017-09-06T23:17:01.956Z,1.10
2017-09-06T23:19:29.463Z,1.03
2017-09-06T23:21:56.953Z,1.50
2017-09-06T23:24:24.460Z,1.50
2017-09-06T23:26:51.947Z,1.20
2017-09-06T23:29:19.452Z,1.20
2017-09-06T23:31:46.951Z,1.97
2017-09-06T23:34:14.451Z,1.30
2017-09-06T23:36:41.964Z,1.20
2017-09-06T23:39:09.447Z,1.10
2017-09-06T23:41:36.944Z,1.37
2017-09-06T23:44:04.451Z,1.40
2017-09-06T23:46:31.936Z,1.73
2017-09-06T23:48:59.796Z,1.40
2017-09-06T23:51:27.292Z,1.53
2017-09-06T23:53:54.797Z,1.20
2017-09-06T23:56:22.301Z,1.67
2017-09-06T23:58:49.949Z,1.30
